Terminal Aerodrome Forecast
Issued by NWS

Home | Current Version | Previous Version | Text Only | Print | Product List | Glossary On
Versions: 1 2 3 4 5 6 7 8 9 10 11 12 13 14 15 16 17 18 19 20 21 22 23 24 25
704
FTUS44 KLIX 270520
TAFMCB
TAF
KMCB 270520Z 2706/2806 15006KT P6SM SKC
     FM271200 16006KT P6SM BKN025
     FM271300 16008KT P6SM BKN045
     FM271700 16013KT P6SM BKN150
     FM272200 16009KT P6SM OVC250=

USA.gov is the U.S. government's official web portal to all federal, state and local government web resources and services.